Time;durP1;ratioP1;P1;durP2;ratioP2;P2;SDS_P1;SDS_P2;PMS_P1;PMS_P2;Temp;Humidity;BMP_temperature;BMP_pressure;BME280_temperature;BME280_humidity;BME280_pressure;Samples;Min_cycle;Max_cycle;Signal;HPM_P1;HPM_P2
2021/08/08 00:02:15;;;;;;;17.90;9.00;;;;;;;23.48;50.13;99421.94;5033014;28;20405;-58
2021/08/08 00:04:41;;;;;;;19.70;9.25;;;;;;;23.50;50.30;99419.84;5032251;28;20037;-55
2021/08/08 00:07:06;;;;;;;18.10;8.90;;;;;;;23.50;49.71;99422.56;5032927;28;20481;-57
2021/08/08 00:09:32;;;;;;;20.65;8.88;;;;;;;23.53;49.73;99430.31;5032881;28;20052;-60
2021/08/08 00:11:57;;;;;;;16.48;9.30;;;;;;;23.52;49.56;99436.84;5032648;28;20025;-59
2021/08/08 00:14:23;;;;;;;14.77;10.30;;;;;;;23.50;49.63;99425.28;5032010;28;20473;-58
2021/08/08 00:16:49;;;;;;;22.38;9.00;;;;;;;23.51;49.68;99425.09;5032782;28;20171;-59
2021/08/08 00:19:15;;;;;;;20.90;11.68;;;;;;;23.51;49.33;99426.97;5033036;28;20033;-56
2021/08/08 00:21:40;;;;;;;26.20;12.73;;;;;;;23.51;49.31;99432.44;5031942;28;20123;-57
2021/08/08 00:24:06;;;;;;;19.83;11.23;;;;;;;23.48;49.55;99435.59;5032519;28;20033;-60
2021/08/08 00:26:31;;;;;;;18.08;9.77;;;;;;;23.39;49.16;99434.16;5032511;28;20447;-59
2021/08/08 00:28:57;;;;;;;14.50;8.90;;;;;;;23.32;49.58;99424.13;5030821;28;20033;-56
2021/08/08 00:31:24;;;;;;;18.42;8.95;;;;;;;23.44;50.12;99446.13;5032128;28;20036;-59
2021/08/08 00:33:53;;;;;;;21.38;9.18;;;;;;;23.47;49.75;99464.81;5032484;28;20060;-60
2021/08/08 00:36:19;;;;;;;19.02;8.30;;;;;;;23.38;49.90;99460.66;5032273;28;20095;-58
2021/08/08 00:38:44;;;;;;;15.93;8.57;;;;;;;23.39;49.35;99450.56;5031906;28;20029;-59
2021/08/08 00:41:10;;;;;;;18.15;8.40;;;;;;;23.41;49.27;99457.50;5037756;28;20035;-58
2021/08/08 00:43:35;;;;;;;18.85;8.70;;;;;;;23.39;49.58;99445.09;5051245;28;20036;-58
2021/08/08 00:46:01;;;;;;;15.95;8.55;;;;;;;23.40;49.30;99442.16;5052246;28;20045;-59
2021/08/08 00:48:26;;;;;;;14.82;8.30;;;;;;;23.36;49.11;99440.91;5051608;28;20107;-58
2021/08/08 00:50:52;;;;;;;14.68;8.18;;;;;;;23.39;49.11;99439.63;5052002;28;20420;-56
2021/08/08 00:53:18;;;;;;;18.35;8.52;;;;;;;23.39;48.90;99445.09;5052039;28;20033;-58
2021/08/08 00:55:43;;;;;;;15.50;8.18;;;;;;;23.39;49.62;99456.88;5051788;28;20091;-58
2021/08/08 00:58:09;;;;;;;17.45;7.78;;;;;;;23.39;49.26;99461.47;5050882;28;20033;-55
2021/08/08 01:00:37;;;;;;;18.65;8.45;;;;;;;23.41;49.32;99462.13;5050693;28;20473;-59
2021/08/08 01:03:06;;;;;;;19.02;9.27;;;;;;;23.45;48.95;99444.25;5052053;28;20025;-59
2021/08/08 01:05:36;;;;;;;15.98;8.32;;;;;;;23.46;48.88;99462.31;5051299;28;20033;-54
2021/08/08 01:08:04;;;;;;;13.82;8.60;;;;;;;23.45;49.13;99472.38;5050337;28;20028;-58
2021/08/08 01:10:33;;;;;;;16.00;7.85;;;;;;;23.41;49.05;99462.97;5051234;28;20064;-58
2021/08/08 01:12:59;;;;;;;14.93;9.45;;;;;;;23.36;49.27;99449.94;5051610;28;20120;-57
2021/08/08 01:15:24;;;;;;;13.20;7.50;;;;;;;23.34;49.47;99448.50;5051320;28;20060;-58
2021/08/08 01:17:51;;;;;;;19.52;8.30;;;;;;;23.22;49.24;99424.56;5051437;28;20037;-59
2021/08/08 01:20:17;;;;;;;15.82;7.85;;;;;;;23.29;49.64;99462.78;5051467;28;20032;-58
2021/08/08 01:22:55;;;;;;;19.67;7.43;;;;;;;23.37;49.70;99461.72;5037693;28;20094;-60
2021/08/08 01:25:22;;;;;;;19.35;7.55;;;;;;;23.24;49.94;99454.38;5031610;28;20029;-56
2021/08/08 01:27:51;;;;;;;18.65;7.97;;;;;;;23.25;49.51;99460.66;5031364;28;20060;-59
2021/08/08 01:30:16;;;;;;;17.42;7.45;;;;;;;23.14;49.44;99448.53;5031164;28;20025;-59
2021/08/08 01:32:43;;;;;;;15.80;8.05;;;;;;;23.27;49.35;99470.38;5031232;28;20052;-58
2021/08/08 01:35:09;;;;;;;16.13;7.50;;;;;;;23.22;49.23;99478.34;5031095;28;20025;-59
2021/08/08 01:37:35;;;;;;;22.48;7.55;;;;;;;23.23;49.40;99480.03;5031221;28;20099;-58
2021/08/08 01:40:11;;;;;;;11.50;7.40;;;;;;;23.25;49.20;99475.22;5030991;28;20068;-56
2021/08/08 01:42:41;;;;;;;16.10;7.57;;;;;;;23.29;49.33;99497.47;5030915;28;20433;-60
2021/08/08 01:45:09;;;;;;;15.05;7.68;;;;;;;23.23;49.44;99496.41;5031103;28;20026;-60
2021/08/08 01:47:40;;;;;;;18.80;8.43;;;;;;;23.25;49.29;99494.34;5031000;28;20116;-59
2021/08/08 01:50:06;;;;;;;12.13;7.72;;;;;;;23.16;48.90;99473.75;5031523;28;20029;-60
2021/08/08 01:52:34;;;;;;;18.42;7.32;;;;;;;23.23;49.06;99491.78;5030567;28;20354;-59
2021/08/08 01:55:00;;;;;;;11.80;6.95;;;;;;;23.19;49.09;99514.28;5030873;28;20033;-59
2021/08/08 01:57:26;;;;;;;15.32;6.45;;;;;;;23.18;49.11;99526.25;5035129;28;20083;-59
2021/08/08 01:59:52;;;;;;;13.55;6.35;;;;;;;23.16;49.29;99522.91;5035370;28;20033;-59
2021/08/08 02:02:18;;;;;;;10.43;6.93;;;;;;;23.16;49.67;99542.03;5045419;28;20029;-58
2021/08/08 02:04:45;;;;;;;14.93;6.82;;;;;;;23.17;50.00;99533.59;5054392;28;20472;-57
2021/08/08 02:07:13;;;;;;;13.23;6.80;;;;;;;23.19;49.68;99493.25;5054676;28;20033;-59
2021/08/08 02:09:39;;;;;;;17.23;7.32;;;;;;;23.11;50.19;99470.81;5054805;28;20055;-59
2021/08/08 02:12:05;;;;;;;11.75;7.20;;;;;;;23.07;49.83;99495.81;5054567;28;20036;-57
2021/08/08 02:14:30;;;;;;;17.92;6.82;;;;;;;23.01;50.96;99501.28;5054776;28;20029;-59
2021/08/08 02:16:56;;;;;;;13.13;7.20;;;;;;;22.92;51.11;99500.72;5053932;28;20539;-58
2021/08/08 02:19:21;;;;;;;10.95;6.60;;;;;;;22.86;51.25;99516.03;5054803;28;20115;-59
2021/08/08 02:21:47;;;;;;;15.23;7.07;;;;;;;22.82;52.81;99519.38;5054787;28;20025;-59
2021/08/08 02:24:12;;;;;;;12.70;6.75;;;;;;;22.82;53.08;99536.63;5054444;28;20473;-59
2021/08/08 02:26:38;;;;;;;11.63;6.68;;;;;;;22.79;52.38;99545.22;5054030;28;20033;-59
2021/08/08 02:29:03;;;;;;;14.73;7.35;;;;;;;22.77;52.94;99545.44;5054373;28;20029;-59
2021/08/08 02:31:40;;;;;;;13.57;7.32;;;;;;;22.86;53.16;99567.03;5054764;28;20389;-59
2021/08/08 02:34:07;;;;;;;16.52;7.22;;;;;;;22.66;53.02;99578.78;5054286;28;20380;-61
2021/08/08 02:36:32;;;;;;;15.75;7.22;;;;;;;22.74;53.27;99599.59;5052598;28;20418;-60
2021/08/08 02:38:58;;;;;;;16.50;7.25;;;;;;;22.76;52.33;99594.75;5054528;28;20056;-59
2021/08/08 02:41:24;;;;;;;13.68;7.25;;;;;;;22.75;53.65;99576.69;5054118;28;20040;-58
2021/08/08 02:43:49;;;;;;;17.10;6.72;;;;;;;22.75;54.36;99571.25;5050204;28;20108;-59
2021/08/08 02:46:15;;;;;;;18.50;7.40;;;;;;;22.75;54.09;99571.25;5047154;28;20069;-59
2021/08/08 02:48:40;;;;;;;17.38;7.45;;;;;;;22.64;54.41;99569.97;5034014;28;20477;-59
2021/08/08 02:51:06;;;;;;;14.10;7.20;;;;;;;22.79;52.90;99577.97;5034271;28;20108;-61
2021/08/08 02:53:31;;;;;;;13.52;6.75;;;;;;;22.82;52.83;99577.56;5034461;28;20079;-59
2021/08/08 02:55:57;;;;;;;8.82;6.93;;;;;;;22.85;52.12;99547.09;5033446;28;20033;-59
2021/08/08 02:58:22;;;;;;;12.55;7.72;;;;;;;22.80;52.66;99561.38;5034473;28;20037;-60
2021/08/08 03:00:48;;;;;;;13.13;7.13;;;;;;;22.80;52.02;99572.31;5034194;28;20025;-60
2021/08/08 03:03:13;;;;;;;14.70;7.43;;;;;;;22.84;52.22;99577.34;5033862;28;20057;-59
2021/08/08 03:05:39;;;;;;;18.77;8.45;;;;;;;22.85;52.04;99559.91;5033288;28;20108;-58
2021/08/08 03:08:04;;;;;;;11.60;7.43;;;;;;;22.88;52.38;99548.56;5033478;28;20030;-59
2021/08/08 03:10:30;;;;;;;12.68;7.28;;;;;;;22.82;51.91;99531.16;5032485;28;20266;-60
2021/08/08 03:12:55;;;;;;;8.10;6.65;;;;;;;22.87;51.53;99528.63;5033271;28;20056;-60
2021/08/08 03:15:21;;;;;;;14.02;6.65;;;;;;;22.87;51.53;99536.81;5033219;28;20080;-60
2021/08/08 03:17:46;;;;;;;14.15;6.60;;;;;;;22.90;51.13;99541.00;5033560;28;20074;-58
2021/08/08 03:20:12;;;;;;;9.23;6.10;;;;;;;22.90;50.97;99532.81;5033295;28;20144;-58
2021/08/08 03:22:38;;;;;;;11.98;6.68;;;;;;;22.92;51.68;99558.03;5033352;28;20084;-57
2021/08/08 03:25:04;;;;;;;13.27;7.03;;;;;;;22.94;51.14;99558.66;5032683;28;20057;-57
2021/08/08 03:27:31;;;;;;;11.70;6.30;;;;;;;22.92;51.25;99549.84;5033302;28;20242;-60
2021/08/08 03:29:57;;;;;;;15.10;6.90;;;;;;;22.91;51.15;99557.16;5033035;28;20029;-56
2021/08/08 03:32:23;;;;;;;9.80;6.40;;;;;;;22.95;51.50;99552.13;5033441;28;20414;-56
2021/08/08 03:34:48;;;;;;;18.08;6.43;;;;;;;22.94;51.46;99536.81;5033155;28;20076;-58
2021/08/08 03:37:14;;;;;;;13.63;7.03;;;;;;;22.93;51.59;99530.50;5033105;28;20041;-58
2021/08/08 03:39:39;;;;;;;15.30;6.82;;;;;;;22.84;52.02;99507.22;5032793;28;20319;-57
2021/08/08 03:42:06;;;;;;;16.08;7.63;;;;;;;22.89;53.54;99523.78;5032858;28;20037;-58
2021/08/08 03:44:32;;;;;;;12.13;6.88;;;;;;;22.83;55.38;99530.09;5033170;28;20133;-59
2021/08/08 03:46:57;;;;;;;13.75;6.80;;;;;;;22.78;56.69;99528.00;5032826;28;20030;-57
2021/08/08 03:49:24;;;;;;;16.88;7.20;;;;;;;22.74;57.47;99512.25;5033064;28;20159;-59
2021/08/08 03:51:49;;;;;;;12.95;7.35;;;;;;;22.71;57.06;99504.50;5033504;28;20025;-57
2021/08/08 03:54:15;;;;;;;14.93;7.28;;;;;;;22.64;57.20;99499.03;5032860;28;20036;-59
2021/08/08 03:56:42;;;;;;;15.23;6.70;;;;;;;22.72;56.61;99512.50;5032314;28;20048;-57
2021/08/08 03:59:08;;;;;;;12.93;7.25;;;;;;;22.80;55.47;99520.44;5032768;28;20115;-59
2021/08/08 04:01:34;;;;;;;14.07;6.97;;;;;;;22.88;55.92;99529.44;5032385;28;20159;-58
2021/08/08 04:03:59;;;;;;;12.48;7.00;;;;;;;22.99;56.25;99544.34;5032558;28;20025;-59
2021/08/08 04:06:25;;;;;;;17.52;7.00;;;;;;;23.04;55.36;99536.38;5032762;28;20439;-60
2021/08/08 04:08:50;;;;;;;15.18;6.78;;;;;;;23.14;54.91;99553.16;5032984;28;20037;-59
2021/08/08 04:11:15;;;;;;;10.82;6.75;;;;;;;23.20;53.35;99554.19;5032569;28;20026;-59
2021/08/08 04:13:41;;;;;;;13.00;7.10;;;;;;;23.27;52.61;99568.69;5032680;28;20037;-59
2021/08/08 04:16:07;;;;;;;13.50;7.22;;;;;;;23.26;52.08;99561.56;5032662;28;20124;-58
2021/08/08 04:18:33;;;;;;;15.57;7.05;;;;;;;23.22;52.89;99577.50;5031783;28;20121;-59
2021/08/08 04:20:59;;;;;;;14.35;7.10;;;;;;;23.17;53.10;99584.66;5032127;28;20409;-60
2021/08/08 04:23:25;;;;;;;14.05;7.45;;;;;;;23.00;53.02;99552.34;5051412;28;20024;-59
2021/08/08 04:25:50;;;;;;;16.92;7.60;;;;;;;23.15;52.81;99586.75;5052759;28;20048;-59
2021/08/08 04:28:16;;;;;;;13.40;7.60;;;;;;;23.18;51.91;99575.41;5051034;28;20056;-59
2021/08/08 04:30:41;;;;;;;14.43;6.82;;;;;;;23.19;51.71;99571.63;5050563;28;20492;-55
2021/08/08 04:33:07;;;;;;;14.50;7.63;;;;;;;23.18;51.93;99578.16;5052161;28;20078;-57
2021/08/08 04:35:33;;;;;;;12.32;6.75;;;;;;;23.14;52.22;99576.88;5052222;28;20077;-60
2021/08/08 04:38:03;;;;;;;15.00;7.20;;;;;;;23.22;51.78;99588.41;5051825;28;20076;-57
2021/08/08 04:40:29;;;;;;;13.30;7.15;;;;;;;23.33;52.17;99600.59;5051697;28;20024;-56
2021/08/08 04:42:54;;;;;;;9.85;6.70;;;;;;;23.54;50.70;99587.72;5051733;28;20102;-57
2021/08/08 04:45:23;;;;;;;15.10;6.75;;;;;;;23.75;50.24;99574.84;5052315;28;20041;-58
2021/08/08 04:47:49;;;;;;;11.60;7.22;;;;;;;23.85;49.83;99575.19;5050009;28;20341;-60
2021/08/08 04:50:15;;;;;;;11.60;7.03;;;;;;;23.84;49.60;99573.53;5051412;28;20076;-59
2021/08/08 04:52:41;;;;;;;12.65;7.30;;;;;;;23.82;49.60;99572.91;5051690;28;20119;-57
2021/08/08 04:55:08;;;;;;;10.20;6.60;;;;;;;23.79;49.96;99576.06;5051983;28;20569;-55
2021/08/08 04:57:33;;;;;;;11.43;6.93;;;;;;;23.80;49.62;99575.88;5051554;28;20370;-58
2021/08/08 04:59:59;;;;;;;16.38;6.75;;;;;;;23.79;50.10;99576.94;5051406;28;20055;-60
2021/08/08 05:02:24;;;;;;;11.95;7.45;;;;;;;23.77;50.47;99584.50;5051481;28;20033;-60
2021/08/08 05:04:50;;;;;;;16.88;7.40;;;;;;;23.75;50.53;99591.25;5051027;28;20389;-59
2021/08/08 05:07:17;;;;;;;13.55;7.47;;;;;;;23.74;50.76;99606.78;5051564;28;20025;-58
2021/08/08 05:09:42;;;;;;;17.13;7.43;;;;;;;23.73;50.49;99598.81;5051590;28;20037;-59
2021/08/08 05:12:09;;;;;;;12.80;7.90;;;;;;;23.74;51.53;99601.31;5051293;28;20025;-59
2021/08/08 05:14:38;;;;;;;10.90;7.43;;;;;;;23.71;51.21;99596.28;5051255;28;20036;-58
2021/08/08 05:17:03;;;;;;;11.88;7.30;;;;;;;23.68;51.67;99595.91;5051192;28;20462;-58
2021/08/08 05:19:29;;;;;;;10.80;7.03;;;;;;;23.60;51.70;99597.81;5051008;28;20485;-59
2021/08/08 05:21:54;;;;;;;15.68;7.07;;;;;;;23.60;52.08;99606.00;5044129;28;20032;-60
2021/08/08 05:24:20;;;;;;;18.15;7.95;;;;;;;23.65;51.90;99606.22;5030925;28;20073;-58
2021/08/08 05:26:46;;;;;;;11.90;6.47;;;;;;;23.72;52.03;99611.63;5031179;28;20504;-59
2021/08/08 05:29:12;;;;;;;12.00;7.63;;;;;;;23.83;51.19;99612.03;5031076;28;20041;-60
2021/08/08 05:31:38;;;;;;;13.00;7.57;;;;;;;23.98;51.57;99603.53;5030191;28;20026;-57
2021/08/08 05:34:04;;;;;;;14.40;7.75;;;;;;;24.13;52.09;99592.34;5031123;28;20455;-60
2021/08/08 05:36:30;;;;;;;11.40;7.07;;;;;;;24.55;50.19;99600.91;5030732;28;20116;-60
2021/08/08 05:38:56;;;;;;;12.43;6.88;;;;;;;25.12;48.27;99597.31;5031117;28;20029;-57
2021/08/08 05:41:22;;;;;;;13.25;7.55;;;;;;;25.86;46.34;99590.19;5031265;28;20167;-60
2021/08/08 05:43:47;;;;;;;13.98;8.10;;;;;;;26.44;45.33;99583.28;5030783;28;20109;-59
2021/08/08 05:46:13;;;;;;;12.00;7.60;;;;;;;26.79;44.34;99601.75;5029950;28;20138;-58
2021/08/08 05:48:39;;;;;;;14.98;7.40;;;;;;;26.92;43.61;99597.13;5029261;28;20086;-61
2021/08/08 05:51:04;;;;;;;14.88;7.80;;;;;;;26.84;43.44;99603.75;5029606;28;20034;-60
2021/08/08 05:53:29;;;;;;;15.07;7.70;;;;;;;26.72;44.08;99602.91;5030730;28;20026;-59
2021/08/08 05:55:55;;;;;;;14.10;7.05;;;;;;;26.57;44.25;99606.13;5029287;28;20026;-57
2021/08/08 05:58:20;;;;;;;14.02;7.18;;;;;;;26.40;44.85;99603.19;5030785;28;20453;-61
2021/08/08 06:00:46;;;;;;;11.40;7.35;;;;;;;26.15;45.50;99596.75;5030317;28;20122;-60
2021/08/08 06:03:11;;;;;;;15.02;8.27;;;;;;;25.76;46.50;99605.28;5031142;28;20421;-59
2021/08/08 06:05:38;;;;;;;14.73;7.80;;;;;;;25.49;47.55;99618.47;5031078;28;20467;-59
2021/08/08 06:08:04;;;;;;;14.00;7.50;;;;;;;25.26;47.99;99632.81;5030718;28;20064;-60
2021/08/08 06:10:30;;;;;;;10.93;7.57;;;;;;;25.16;48.39;99647.00;5030868;28;20053;-60
2021/08/08 06:12:56;;;;;;;20.23;8.18;;;;;;;25.04;49.49;99657.84;5030888;28;20064;-59
2021/08/08 06:15:21;;;;;;;11.60;8.13;;;;;;;24.92;50.51;99665.97;5030819;28;20056;-60
2021/08/08 06:17:47;;;;;;;12.93;8.25;;;;;;;24.81;51.13;99670.25;5030271;28;20049;-59
2021/08/08 06:20:13;;;;;;;11.93;7.32;;;;;;;24.73;52.29;99671.31;5032994;28;20367;-60
2021/08/08 06:22:38;;;;;;;20.02;8.27;;;;;;;24.68;52.58;99673.88;5038501;28;20034;-60
2021/08/08 06:25:04;;;;;;;11.25;7.70;;;;;;;24.60;53.16;99675.00;5038710;28;20025;-60
2021/08/08 06:27:30;;;;;;;18.58;8.77;;;;;;;24.52;53.82;99678.00;5038720;28;20033;-58
2021/08/08 06:29:55;;;;;;;17.42;8.45;;;;;;;24.47;54.17;99688.72;5038407;28;20064;-58
2021/08/08 06:32:21;;;;;;;15.60;8.63;;;;;;;24.48;54.52;99691.25;5039593;28;20472;-60
2021/08/08 06:34:46;;;;;;;18.17;8.25;;;;;;;24.43;53.92;99665.59;5039627;28;20021;-61
2021/08/08 06:37:12;;;;;;;18.27;8.73;;;;;;;24.69;53.64;99693.88;5037701;28;20075;-60
2021/08/08 06:39:37;;;;;;;14.77;8.32;;;;;;;24.81;53.01;99697.63;5039728;28;20041;-62
2021/08/08 06:42:03;;;;;;;12.73;9.77;;;;;;;24.98;52.52;99703.41;5040651;28;20021;-58
2021/08/08 06:44:28;;;;;;;17.75;8.95;;;;;;;25.08;53.40;99698.28;5041361;28;20477;-60
2021/08/08 06:46:55;;;;;;;20.17;9.07;;;;;;;25.21;52.47;99700.06;5043638;28;20112;-58
2021/08/08 06:49:20;;;;;;;17.05;9.95;;;;;;;25.33;52.34;99713.88;5042974;28;20028;-58
2021/08/08 06:51:47;;;;;;;19.77;9.60;;;;;;;25.46;52.04;99712.06;5050722;28;20032;-59
2021/08/08 06:54:12;;;;;;;13.30;9.05;;;;;;;25.51;52.62;99715.84;5045948;28;20941;-59
2021/08/08 06:56:38;;;;;;;18.05;9.98;;;;;;;25.58;52.53;99710.31;5066490;28;20040;-56
2021/08/08 06:59:24;;;;;;;18.65;10.02;;;;;;;25.88;51.97;99712.31;5043743;28;20405;-55
2021/08/08 07:01:49;;;;;;;18.25;9.70;;;;;;;25.73;53.13;99688.00;5035508;28;20025;-56
2021/08/08 07:04:15;;;;;;;16.95;10.32;;;;;;;25.83;52.75;99703.94;5041757;28;20552;-59
2021/08/08 07:06:40;;;;;;;15.35;9.82;;;;;;;25.85;53.08;99703.69;5050649;28;20698;-57
2021/08/08 07:09:07;;;;;;;15.93;10.18;;;;;;;25.98;53.89;99706.28;5039307;28;20444;-55
2021/08/08 07:11:36;;;;;;;15.77;10.30;;;;;;;26.21;52.54;99716.59;5043523;28;20082;-56
2021/08/08 07:14:02;;;;;;;16.73;10.52;;;;;;;26.31;52.95;99698.75;5046890;28;20033;-56
2021/08/08 07:16:27;;;;;;;17.65;10.43;;;;;;;26.35;52.86;99689.00;5049386;28;20048;-57
2021/08/08 07:18:53;;;;;;;15.30;9.95;;;;;;;26.30;53.60;99694.34;5052075;28;20064;-57
2021/08/08 07:21:19;;;;;;;14.10;9.88;;;;;;;26.32;54.01;99703.19;5052619;28;20454;-59
2021/08/08 07:23:45;;;;;;;13.35;9.90;;;;;;;26.40;53.53;99710.22;5053156;28;20064;-57
2021/08/08 07:26:10;;;;;;;18.92;10.38;;;;;;;26.54;53.65;99702.69;5053034;28;20036;-58
2021/08/08 07:28:36;;;;;;;16.40;10.38;;;;;;;26.84;52.68;99707.31;5053201;28;20376;-57
2021/08/08 07:31:01;;;;;;;16.13;10.27;;;;;;;27.23;51.95;99707.75;5053255;28;20384;-56
2021/08/08 07:33:27;;;;;;;15.88;10.07;;;;;;;27.54;50.81;99700.28;5053624;28;20033;-55
2021/08/08 07:35:52;;;;;;;15.77;10.10;;;;;;;27.71;50.99;99694.91;5053160;28;20033;-57
2021/08/08 07:38:18;;;;;;;17.67;10.10;;;;;;;27.71;50.76;99710.53;5052854;28;20033;-55
2021/08/08 07:40:44;;;;;;;14.80;9.55;;;;;;;27.69;51.10;99701.69;5053111;28;20412;-54
2021/08/08 07:43:10;;;;;;;13.73;10.00;;;;;;;27.58;51.34;99704.22;5053299;28;20087;-53
2021/08/08 07:45:36;;;;;;;16.23;9.32;;;;;;;27.51;51.78;99717.28;5053149;28;20033;-56
2021/08/08 07:48:02;;;;;;;12.63;9.73;;;;;;;27.49;52.07;99717.47;5053028;28;20025;-56
2021/08/08 07:50:28;;;;;;;15.10;9.77;;;;;;;27.48;51.79;99712.19;5052626;28;20376;-56
2021/08/08 07:52:54;;;;;;;12.75;10.15;;;;;;;27.40;52.10;99707.06;5048801;28;20033;-55
2021/08/08 07:55:21;;;;;;;17.02;9.95;;;;;;;27.17;52.67;99715.06;5032734;28;20029;-56
2021/08/08 07:57:46;;;;;;;13.40;9.95;;;;;;;26.87;54.04;99721.41;5031596;28;20034;-55
2021/08/08 08:00:12;;;;;;;16.92;11.25;;;;;;;26.53;54.62;99726.53;5032941;28;20041;-56
2021/08/08 08:02:38;;;;;;;14.20;10.15;;;;;;;26.34;55.35;99742.22;5032859;28;20029;-56
2021/08/08 08:05:04;;;;;;;15.40;10.50;;;;;;;26.29;55.68;99750.28;5033048;28;20037;-56
2021/08/08 08:07:30;;;;;;;14.65;10.38;;;;;;;26.40;54.99;99760.50;5032338;28;20125;-57
2021/08/08 08:09:55;;;;;;;15.88;10.38;;;;;;;26.77;53.86;99763.19;5032415;28;20031;-59
2021/08/08 08:12:21;;;;;;;16.55;10.55;;;;;;;27.10;53.27;99755.53;5032212;28;20033;-56
2021/08/08 08:14:46;;;;;;;16.45;10.35;;;;;;;27.33;52.39;99760.25;5032677;28;20342;-57
2021/08/08 08:17:12;;;;;;;15.82;10.50;;;;;;;27.31;51.91;99756.91;5032528;28;20033;-55
2021/08/08 08:19:38;;;;;;;13.90;9.40;;;;;;;27.02;52.62;99748.47;5032296;28;20061;-58
2021/08/08 08:22:04;;;;;;;14.43;8.82;;;;;;;26.92;53.08;99762.78;5032369;28;20484;-52
2021/08/08 08:24:29;;;;;;;15.35;9.77;;;;;;;26.61;54.34;99780.28;5032519;28;20029;-53
2021/08/08 08:26:55;;;;;;;12.52;8.45;;;;;;;26.35;54.75;99771.31;5032998;28;20099;-52
2021/08/08 08:29:21;;;;;;;10.00;8.40;;;;;;;26.21;55.22;99765.97;5032231;28;20117;-51
2021/08/08 08:31:46;;;;;;;11.23;9.15;;;;;;;26.14;55.22;99772.56;5031682;28;20041;-49
2021/08/08 08:34:12;;;;;;;13.27;9.02;;;;;;;26.04;55.56;99779.44;5032372;28;20469;-52
2021/08/08 08:36:37;;;;;;;11.55;7.68;;;;;;;25.80;55.71;99772.91;5031940;28;20094;-52
2021/08/08 08:39:03;;;;;;;10.13;8.23;;;;;;;25.65;56.76;99778.75;5031919;28;20029;-49
2021/08/08 08:41:30;;;;;;;12.45;8.77;;;;;;;25.55;56.15;99782.00;5031496;28;20362;-68
2021/08/08 08:44:00;;;;;;;11.80;8.05;;;;;;;25.37;57.85;99783.63;5031965;28;20034;-51
2021/08/08 08:46:27;;;;;;;10.60;8.07;;;;;;;25.22;57.44;99786.69;5035882;28;20445;-56
2021/08/08 08:48:54;;;;;;;9.77;8.23;;;;;;;25.12;58.54;99789.06;5040529;28;20052;-55
2021/08/08 08:51:30;;;;;;;8.85;7.28;;;;;;;25.08;57.65;99796.03;5047546;28;20115;-50
2021/08/08 08:53:57;;;;;;;9.88;6.38;;;;;;;24.83;56.83;99793.22;5051792;28;20067;-53
2021/08/08 08:56:23;;;;;;;7.50;5.97;;;;;;;24.70;56.50;99794.94;5051623;28;20024;-55
2021/08/08 08:58:49;;;;;;;9.70;6.45;;;;;;;24.63;58.09;99784.03;5050830;28;20029;-48
2021/08/08 09:01:15;;;;;;;9.82;6.13;;;;;;;24.55;58.73;99776.06;5050738;28;20029;-51
2021/08/08 09:03:43;;;;;;;7.63;5.50;;;;;;;24.63;56.58;99772.25;5048757;28;20030;-52
2021/08/08 09:06:09;;;;;;;7.97;5.68;;;;;;;24.56;58.61;99761.34;5045509;28;20033;-52
2021/08/08 09:08:34;;;;;;;10.25;6.05;;;;;;;24.58;58.68;99758.34;5047155;28;20086;-53
2021/08/08 09:11:05;;;;;;;8.48;6.00;;;;;;;24.82;58.10;99769.63;5048944;28;20029;-51
2021/08/08 09:13:31;;;;;;;9.00;5.45;;;;;;;24.92;57.54;99764.53;5047137;28;20029;-50
2021/08/08 09:15:57;;;;;;;6.65;5.47;;;;;;;25.14;56.50;99761.44;5048523;28;20071;-53
2021/08/08 09:18:23;;;;;;;7.47;5.65;;;;;;;25.45;54.46;99752.34;5048553;28;20420;-53
2021/08/08 09:20:50;;;;;;;8.55;5.22;;;;;;;25.77;54.58;99759.66;5048601;28;20033;-55
2021/08/08 09:23:17;;;;;;;7.03;5.13;;;;;;;25.87;51.96;99759.16;5049786;28;20074;-53
2021/08/08 09:25:55;;;;;;;8.40;5.65;;;;;;;26.25;53.25;99773.75;5050412;28;20536;-51
2021/08/08 09:28:28;;;;;;;7.10;5.30;;;;;;;26.48;52.58;99776.63;5050867;28;20029;-53
2021/08/08 09:30:53;;;;;;;8.50;5.22;;;;;;;26.49;51.22;99767.31;5050832;28;20384;-53
2021/08/08 09:33:19;;;;;;;11.20;6.40;;;;;;;26.45;52.19;99766.13;5050140;28;20037;-52
2021/08/08 09:35:45;;;;;;;7.70;5.78;;;;;;;26.36;52.08;99749.13;5050706;28;20116;-49
2021/08/08 09:38:12;;;;;;;10.73;6.22;;;;;;;26.15;52.03;99739.44;5048984;28;20037;-53
2021/08/08 09:40:42;;;;;;;10.43;5.75;;;;;;;26.32;52.33;99769.88;5048685;28;20032;-54
2021/08/08 09:43:10;;;;;;;7.10;5.75;;;;;;;26.14;52.69;99762.44;5050164;28;20025;-52
2021/08/08 09:45:39;;;;;;;10.82;8.40;;;;;;;26.22;52.99;99775.88;5051141;28;20488;-55
2021/08/08 09:48:09;;;;;;;9.80;6.30;;;;;;;26.20;52.12;99767.03;5050030;28;20033;-54
2021/08/08 09:50:35;;;;;;;7.50;5.53;;;;;;;26.25;52.21;99760.03;5050517;28;20029;-55
2021/08/08 09:53:03;;;;;;;7.57;6.13;;;;;;;26.37;52.29;99774.69;5051130;28;20532;-55
2021/08/08 09:55:35;;;;;;;9.40;5.65;;;;;;;26.50;51.22;99771.75;5050896;28;20029;-53
2021/08/08 09:58:17;;;;;;;8.50;6.38;;;;;;;26.71;50.42;99758.59;5050538;28;20449;-51
2021/08/08 10:00:44;;;;;;;7.68;5.80;;;;;;;27.02;50.26;99744.88;5048970;28;20064;-55
2021/08/08 10:03:12;;;;;;;6.95;5.47;;;;;;;27.51;49.28;99764.00;5049006;28;20044;-51
2021/08/08 10:05:39;;;;;;;9.48;5.43;;;;;;;27.80;47.40;99772.38;5050051;28;20055;-54
2021/08/08 10:08:09;;;;;;;6.32;5.20;;;;;;;27.93;47.08;99782.31;5050064;28;20465;-52
2021/08/08 10:10:36;;;;;;;10.40;6.03;;;;;;;27.83;47.73;99774.66;5050580;28;20048;-55
2021/08/08 10:13:29;;;;;;;10.40;6.18;;;;;;;28.00;47.83;99784.94;5050629;28;20029;-55
2021/08/08 10:15:56;;;;;;;6.78;5.05;;;;;;;27.88;47.24;99777.50;5048580;28;20079;-54
2021/08/08 10:18:24;;;;;;;6.22;5.32;;;;;;;27.74;47.33;99765.09;5053720;28;20040;-52
2021/08/08 10:20:50;;;;;;;9.07;5.30;;;;;;;27.91;47.30;99777.03;5052926;28;20033;-51
2021/08/08 10:23:17;;;;;;;6.68;5.55;;;;;;;28.06;46.43;99764.72;5052954;28;20082;-57
2021/08/08 10:25:48;;;;;;;8.15;4.75;;;;;;;28.24;45.75;99765.66;5053913;28;20464;-55
2021/08/08 10:28:14;;;;;;;7.43;4.57;;;;;;;28.13;45.25;99770.91;5053708;28;20033;-56
2021/08/08 10:30:41;;;;;;;6.97;4.53;;;;;;;28.03;45.13;99777.03;5054662;28;20032;-58
2021/08/08 10:33:07;;;;;;;8.88;4.93;;;;;;;27.89;46.04;99784.69;5054258;28;20028;-56
2021/08/08 10:35:42;;;;;;;8.20;5.45;;;;;;;28.03;46.46;99787.22;5053911;28;20029;-60
2021/08/08 10:38:09;;;;;;;;;;;;;;;28.38;46.01;99791.84;5054121;28;20365;-60
2021/08/08 10:40:37;;;;;;;11.32;4.88;;;;;;;27.90;46.23;99789.13;5054565;28;19966;-61
2021/08/08 10:43:04;;;;;;;4.97;4.47;;;;;;;27.72;46.47;99786.47;5053960;28;20025;-60
2021/08/08 10:45:32;;;;;;;7.40;4.88;;;;;;;27.63;46.81;99795.09;5054017;28;20029;-69
2021/08/08 10:48:00;;;;;;;7.40;4.60;;;;;;;27.53;47.16;99796.75;5053679;28;20029;-64
2021/08/08 10:50:37;;;;;;;5.32;4.70;;;;;;;27.59;47.48;99796.66;5054262;28;20064;-70
2021/08/08 10:53:03;;;;;;;7.57;4.85;;;;;;;27.23;47.34;99766.31;5054271;28;20428;-65
2021/08/08 10:55:30;;;;;;;10.02;4.97;;;;;;;27.27;48.42;99774.94;5053509;28;20029;-74
2021/08/08 10:57:56;;;;;;;7.13;4.78;;;;;;;27.39;47.11;99787.84;5053873;28;20064;-67
2021/08/08 11:00:30;;;;;;;8.25;4.95;;;;;;;27.49;46.96;99785.34;5053925;28;20033;-65
2021/08/08 11:02:56;;;;;;;6.35;4.72;;;;;;;27.33;46.42;99779.50;5053667;28;20032;-68
2021/08/08 11:05:22;;;;;;;8.32;4.68;;;;;;;27.23;46.15;99781.97;5053076;28;20362;-67
2021/08/08 11:07:48;;;;;;;8.82;4.50;;;;;;;27.05;47.14;99760.91;5053555;28;20030;-65
2021/08/08 11:10:27;;;;;;;6.80;4.25;;;;;;;27.41;46.77;99782.97;5053292;28;20021;-66
2021/08/08 11:12:53;;;;;;;5.40;4.70;;;;;;;27.30;46.60;99785.47;5053478;28;20029;-65
2021/08/08 11:15:19;;;;;;;8.23;5.25;;;;;;;27.32;46.63;99774.22;5052863;28;20136;-64
2021/08/08 11:17:47;;;;;;;9.18;5.00;;;;;;;27.54;46.84;99779.19;5053237;28;20040;-66
2021/08/08 11:20:13;;;;;;;8.05;5.15;;;;;;;27.48;46.30;99772.69;5053355;28;20362;-65
2021/08/08 11:22:39;;;;;;;10.50;4.70;;;;;;;27.57;46.07;99782.31;5053038;28;20037;-68
2021/08/08 11:25:12;;;;;;;8.57;4.72;;;;;;;27.71;46.49;99782.06;5053597;28;20040;-64